sensor_id;sensor_type;location;lat;lon;timestamp;temperature;humidity
19174;DHT22;9719;49.322;8.536;2024-03-23T00:54:13;11.10;99.90
19174;DHT22;9719;49.322;8.536;2024-03-23T00:59:15;11.10;99.90
19174;DHT22;9719;49.322;8.536;2024-03-23T01:04:16;10.90;99.90
19174;DHT22;9719;49.322;8.536;2024-03-23T01:09:19;10.70;99.90
19174;DHT22;9719;49.322;8.536;2024-03-23T01:14:21;10.70;99.90
19174;DHT22;9719;49.322;8.536;2024-03-23T01:19:23;10.70;99.90
19174;DHT22;9719;49.322;8.536;2024-03-23T01:24:26;10.80;99.90
19174;DHT22;9719;49.322;8.536;2024-03-23T01:29:27;11.10;99.90
19174;DHT22;9719;49.322;8.536;2024-03-23T01:34:29;11.10;99.90
19174;DHT22;9719;49.322;8.536;2024-03-23T01:39:32;11.20;99.90
19174;DHT22;9719;49.322;8.536;2024-03-23T01:44:33;11.20;99.90
19174;DHT22;9719;49.322;8.536;2024-03-23T01:49:35;11.40;99.90
19174;DHT22;9719;49.322;8.536;2024-03-23T01:54:39;11.50;99.90
19174;DHT22;9719;49.322;8.536;2024-03-23T01:59:41;11.60;99.90
19174;DHT22;9719;49.322;8.536;2024-03-23T02:04:43;11.50;99.90
19174;DHT22;9719;49.322;8.536;2024-03-23T02:09:46;11.60;99.90
19174;DHT22;9719;49.322;8.536;2024-03-23T02:14:48;11.60;99.90
19174;DHT22;9719;49.322;8.536;2024-03-23T02:19:50;11.70;99.90
19174;DHT22;9719;49.322;8.536;2024-03-23T02:24:53;11.70;99.90
19174;DHT22;9719;49.322;8.536;2024-03-23T02:29:55;11.60;99.90
19174;DHT22;9719;49.322;8.536;2024-03-23T02:34:57;11.80;99.90
19174;DHT22;9719;49.322;8.536;2024-03-23T02:40:00;12.00;99.90
19174;DHT22;9719;49.322;8.536;2024-03-23T02:45:01;11.90;99.90
19174;DHT22;9719;49.322;8.536;2024-03-23T02:50:06;11.90;99.90
19174;DHT22;9719;49.322;8.536;2024-03-23T02:55:09;12.10;99.90
19174;DHT22;9719;49.322;8.536;2024-03-23T03:00:11;12.30;99.90
19174;DHT22;9719;49.322;8.536;2024-03-23T03:05:13;12.60;99.90
19174;DHT22;9719;49.322;8.536;2024-03-23T03:10:16;12.50;99.90
19174;DHT22;9719;49.322;8.536;2024-03-23T03:15:18;12.60;99.90
19174;DHT22;9719;49.322;8.536;2024-03-23T03:20:20;12.60;99.90
19174;DHT22;9719;49.322;8.536;2024-03-23T03:25:25;12.60;99.90
19174;DHT22;9719;49.322;8.536;2024-03-23T03:30:27;12.70;99.90
19174;DHT22;9719;49.322;8.536;2024-03-23T03:35:28;12.60;99.90
19174;DHT22;9719;49.322;8.536;2024-03-23T03:40:31;12.50;99.90
19174;DHT22;9719;49.322;8.536;2024-03-23T03:45:33;12.60;99.90
19174;DHT22;9719;49.322;8.536;2024-03-23T03:50:35;12.50;99.90
19174;DHT22;9719;49.322;8.536;2024-03-23T03:55:38;12.40;99.90
19174;DHT22;9719;49.322;8.536;2024-03-23T04:00:39;12.50;99.90
19174;DHT22;9719;49.322;8.536;2024-03-23T04:05:41;12.50;99.90
19174;DHT22;9719;49.322;8.536;2024-03-23T04:10:44;12.60;99.90
19174;DHT22;9719;49.322;8.536;2024-03-23T04:15:46;12.40;99.90
19174;DHT22;9719;49.322;8.536;2024-03-23T04:20:48;12.40;99.90
19174;DHT22;9719;49.322;8.536;2024-03-23T04:25:51;12.50;99.90
19174;DHT22;9719;49.322;8.536;2024-03-23T04:30:53;12.30;99.90
19174;DHT22;9719;49.322;8.536;2024-03-23T04:35:55;12.30;99.90
19174;DHT22;9719;49.322;8.536;2024-03-23T04:40:59;12.30;99.90
19174;DHT22;9719;49.322;8.536;2024-03-23T04:46:01;12.30;99.90
19174;DHT22;9719;49.322;8.536;2024-03-23T04:51:03;12.10;99.90
19174;DHT22;9719;49.322;8.536;2024-03-23T04:56:06;12.00;99.90
19174;DHT22;9719;49.322;8.536;2024-03-23T05:01:07;12.10;99.90
19174;DHT22;9719;49.322;8.536;2024-03-23T05:06:09;11.90;99.90
19174;DHT22;9719;49.322;8.536;2024-03-23T05:11:12;11.70;99.90
19174;DHT22;9719;49.322;8.536;2024-03-23T05:16:14;11.70;99.90
19174;DHT22;9719;49.322;8.536;2024-03-23T05:21:15;11.70;99.90
19174;DHT22;9719;49.322;8.536;2024-03-23T05:26:18;11.60;99.90
19174;DHT22;9719;49.322;8.536;2024-03-23T05:31:23;11.40;99.90
19174;DHT22;9719;49.322;8.536;2024-03-23T05:36:25;11.30;99.90
19174;DHT22;9719;49.322;8.536;2024-03-23T05:41:28;11.30;99.90
19174;DHT22;9719;49.322;8.536;2024-03-23T05:46:30;11.10;99.90
19174;DHT22;9719;49.322;8.536;2024-03-23T05:51:31;11.00;99.90
19174;DHT22;9719;49.322;8.536;2024-03-23T05:56:35;10.70;99.90
19174;DHT22;9719;49.322;8.536;2024-03-23T06:01:36;9.80;99.90
19174;DHT22;9719;49.322;8.536;2024-03-23T06:06:39;9.60;99.90
19174;DHT22;9719;49.322;8.536;2024-03-23T06:11:42;9.60;99.90
19174;DHT22;9719;49.322;8.536;2024-03-23T06:16:44;9.40;99.90
19174;DHT22;9719;49.322;8.536;2024-03-23T06:21:45;9.50;99.90
19174;DHT22;9719;49.322;8.536;2024-03-23T06:26:48;9.30;99.90
19174;DHT22;9719;49.322;8.536;2024-03-23T06:31:53;9.40;99.90
19174;DHT22;9719;49.322;8.536;2024-03-23T06:36:55;9.40;99.90
19174;DHT22;9719;49.322;8.536;2024-03-23T06:41:58;9.50;99.90
19174;DHT22;9719;49.322;8.536;2024-03-23T06:47:00;9.30;99.90
19174;DHT22;9719;49.322;8.536;2024-03-23T06:52:03;9.60;99.90
19174;DHT22;9719;49.322;8.536;2024-03-23T06:57:06;9.50;99.90
19174;DHT22;9719;49.322;8.536;2024-03-23T07:02:08;9.20;99.90
19174;DHT22;9719;49.322;8.536;2024-03-23T07:07:09;9.30;99.90
19174;DHT22;9719;49.322;8.536;2024-03-23T07:12:13;9.20;99.90
19174;DHT22;9719;49.322;8.536;2024-03-23T07:17:15;9.10;99.90
19174;DHT22;9719;49.322;8.536;2024-03-23T07:22:18;9.20;99.90
19174;DHT22;9719;49.322;8.536;2024-03-23T07:27:21;9.30;99.90
19174;DHT22;9719;49.322;8.536;2024-03-23T07:32:24;9.00;99.90
19174;DHT22;9719;49.322;8.536;2024-03-23T07:37:27;9.00;99.90
19174;DHT22;9719;49.322;8.536;2024-03-23T07:42:30;9.20;99.90
19174;DHT22;9719;49.322;8.536;2024-03-23T07:47:31;9.20;99.90
19174;DHT22;9719;49.322;8.536;2024-03-23T07:52:33;9.40;99.90
19174;DHT22;9719;49.322;8.536;2024-03-23T07:57:36;9.50;99.90
19174;DHT22;9719;49.322;8.536;2024-03-23T08:02:38;9.60;99.90
19174;DHT22;9719;49.322;8.536;2024-03-23T08:07:39;9.70;99.90
19174;DHT22;9719;49.322;8.536;2024-03-23T08:12:42;9.90;99.90
19174;DHT22;9719;49.322;8.536;2024-03-23T08:17:44;10.00;99.90
19174;DHT22;9719;49.322;8.536;2024-03-23T08:22:46;9.80;99.90
19174;DHT22;9719;49.322;8.536;2024-03-23T08:27:49;9.80;99.90
19174;DHT22;9719;49.322;8.536;2024-03-23T08:32:50;9.90;99.90
19174;DHT22;9719;49.322;8.536;2024-03-23T08:37:52;9.90;99.90
19174;DHT22;9719;49.322;8.536;2024-03-23T08:42:55;10.60;99.90
19174;DHT22;9719;49.322;8.536;2024-03-23T08:47:57;10.40;99.90
19174;DHT22;9719;49.322;8.536;2024-03-23T08:52:58;10.60;99.90
19174;DHT22;9719;49.322;8.536;2024-03-23T08:58:01;9.80;99.90
19174;DHT22;9719;49.322;8.536;2024-03-23T09:03:04;9.80;99.90
19174;DHT22;9719;49.322;8.536;2024-03-23T09:08:06;10.60;99.90
19174;DHT22;9719;49.322;8.536;2024-03-23T09:13:10;10.60;99.90
19174;DHT22;9719;49.322;8.536;2024-03-23T09:18:11;10.60;99.90
19174;DHT22;9719;49.322;8.536;2024-03-23T09:23:13;11.20;99.90
19174;DHT22;9719;49.322;8.536;2024-03-23T09:28:16;10.50;99.90
19174;DHT22;9719;49.322;8.536;2024-03-23T09:33:18;11.50;99.90
19174;DHT22;9719;49.322;8.536;2024-03-23T09:38:19;11.10;99.90
19174;DHT22;9719;49.322;8.536;2024-03-23T09:43:22;10.60;99.90
19174;DHT22;9719;49.322;8.536;2024-03-23T09:48:24;10.20;99.90
19174;DHT22;9719;49.322;8.536;2024-03-23T09:53:27;10.40;99.90
19174;DHT22;9719;49.322;8.536;2024-03-23T09:58:30;10.60;99.90
19174;DHT22;9719;49.322;8.536;2024-03-23T10:03:42;10.10;99.90
19174;DHT22;9719;49.322;8.536;2024-03-23T10:08:44;10.00;99.90
19174;DHT22;9719;49.322;8.536;2024-03-23T10:13:47;10.20;99.90
19174;DHT22;9719;49.322;8.536;2024-03-23T10:18:49;10.40;99.90
19174;DHT22;9719;49.322;8.536;2024-03-23T10:23:51;10.30;99.90
19174;DHT22;9719;49.322;8.536;2024-03-23T10:28:55;10.80;99.90
19174;DHT22;9719;49.322;8.536;2024-03-23T10:34:00;10.60;99.90
19174;DHT22;9719;49.322;8.536;2024-03-23T10:39:02;11.00;99.90
19174;DHT22;9719;49.322;8.536;2024-03-23T10:44:05;10.80;99.90
19174;DHT22;9719;49.322;8.536;2024-03-23T10:49:07;10.70;94.90
19174;DHT22;9719;49.322;8.536;2024-03-23T10:54:09;11.10;90.20
19174;DHT22;9719;49.322;8.536;2024-03-23T10:59:15;11.90;89.20
19174;DHT22;9719;49.322;8.536;2024-03-23T11:04:29;12.20;80.80
19174;DHT22;9719;49.322;8.536;2024-03-23T11:09:41;12.70;78.30
19174;DHT22;9719;49.322;8.536;2024-03-23T11:14:47;11.60;89.10
19174;DHT22;9719;49.322;8.536;2024-03-23T11:19:53;11.50;84.10
19174;DHT22;9719;49.322;8.536;2024-03-23T11:24:57;11.40;78.90
19174;DHT22;9719;49.322;8.536;2024-03-23T11:30:11;11.50;80.50
19174;DHT22;9719;49.322;8.536;2024-03-23T11:35:29;11.90;80.70
19174;DHT22;9719;49.322;8.536;2024-03-23T11:40:34;12.00;77.50
19174;DHT22;9719;49.322;8.536;2024-03-23T11:45:38;11.50;81.80
19174;DHT22;9719;49.322;8.536;2024-03-23T11:50:41;12.40;77.50
19174;DHT22;9719;49.322;8.536;2024-03-23T11:55:45;12.40;68.70
19174;DHT22;9719;49.322;8.536;2024-03-23T12:00:53;12.30;69.80
19174;DHT22;9719;49.322;8.536;2024-03-23T12:05:55;12.00;80.10
19174;DHT22;9719;49.322;8.536;2024-03-23T12:11:05;11.60;83.70
19174;DHT22;9719;49.322;8.536;2024-03-23T12:16:12;11.10;88.60
19174;DHT22;9719;49.322;8.536;2024-03-23T12:21:14;10.20;99.90
19174;DHT22;9719;49.322;8.536;2024-03-23T12:26:17;9.70;99.90
19174;DHT22;9719;49.322;8.536;2024-03-23T12:31:20;8.90;99.90
19174;DHT22;9719;49.322;8.536;2024-03-23T12:36:21;8.10;99.90
19174;DHT22;9719;49.322;8.536;2024-03-23T12:41:23;8.80;99.90
19174;DHT22;9719;49.322;8.536;2024-03-23T12:46:26;10.10;99.90
19174;DHT22;9719;49.322;8.536;2024-03-23T12:51:28;9.20;99.90
19174;DHT22;9719;49.322;8.536;2024-03-23T12:56:30;9.40;99.90
19174;DHT22;9719;49.322;8.536;2024-03-23T13:01:33;9.60;99.90
19174;DHT22;9719;49.322;8.536;2024-03-23T13:06:34;9.40;99.90
19174;DHT22;9719;49.322;8.536;2024-03-23T13:11:36;7.20;99.90
19174;DHT22;9719;49.322;8.536;2024-03-23T13:16:39;6.20;99.90
19174;DHT22;9719;49.322;8.536;2024-03-23T13:21:41;7.70;99.90
19174;DHT22;9719;49.322;8.536;2024-03-23T13:26:42;7.60;99.90
19174;DHT22;9719;49.322;8.536;2024-03-23T13:31:45;7.50;99.90
19174;DHT22;9719;49.322;8.536;2024-03-23T13:36:47;8.40;99.90
19174;DHT22;9719;49.322;8.536;2024-03-23T13:41:49;8.80;99.90
19174;DHT22;9719;49.322;8.536;2024-03-23T13:46:52;8.90;99.90
19174;DHT22;9719;49.322;8.536;2024-03-23T13:51:54;9.90;99.90
19174;DHT22;9719;49.322;8.536;2024-03-23T13:56:57;9.90;99.90
19174;DHT22;9719;49.322;8.536;2024-03-23T14:02:00;10.10;99.90
19174;DHT22;9719;49.322;8.536;2024-03-23T14:07:02;10.10;99.90
19174;DHT22;9719;49.322;8.536;2024-03-23T14:12:04;9.50;99.90
19174;DHT22;9719;49.322;8.536;2024-03-23T14:17:10;10.40;99.90
19174;DHT22;9719;49.322;8.536;2024-03-23T14:22:14;10.40;99.90
19174;DHT22;9719;49.322;8.536;2024-03-23T14:27:18;10.40;99.90
19174;DHT22;9719;49.322;8.536;2024-03-23T14:32:21;10.50;99.90
19174;DHT22;9719;49.322;8.536;2024-03-23T14:37:23;9.90;99.90
19174;DHT22;9719;49.322;8.536;2024-03-23T14:42:25;10.10;99.90
19174;DHT22;9719;49.322;8.536;2024-03-23T14:47:28;10.20;99.90
19174;DHT22;9719;49.322;8.536;2024-03-23T14:52:29;9.90;99.90
19174;DHT22;9719;49.322;8.536;2024-03-23T14:57:31;10.10;99.90
19174;DHT22;9719;49.322;8.536;2024-03-23T15:02:35;10.20;99.90
19174;DHT22;9719;49.322;8.536;2024-03-23T15:07:36;10.30;99.90
19174;DHT22;9719;49.322;8.536;2024-03-23T15:12:39;10.30;99.90
19174;DHT22;9719;49.322;8.536;2024-03-23T15:17:42;10.40;99.90
19174;DHT22;9719;49.322;8.536;2024-03-23T15:22:45;10.00;99.90
19174;DHT22;9719;49.322;8.536;2024-03-23T15:27:46;10.20;99.90
19174;DHT22;9719;49.322;8.536;2024-03-23T15:32:49;10.10;99.90
19174;DHT22;9719;49.322;8.536;2024-03-23T15:37:51;10.10;99.90
19174;DHT22;9719;49.322;8.536;2024-03-23T15:42:53;10.10;99.90
19174;DHT22;9719;49.322;8.536;2024-03-23T15:47:56;9.80;99.90
19174;DHT22;9719;49.322;8.536;2024-03-23T15:52:57;7.70;99.90
19174;DHT22;9719;49.322;8.536;2024-03-23T15:57:59;5.00;99.90
19174;DHT22;9719;49.322;8.536;2024-03-23T16:03:02;4.40;99.90
19174;DHT22;9719;49.322;8.536;2024-03-23T16:08:04;4.20;99.90
19174;DHT22;9719;49.322;8.536;2024-03-23T16:13:08;5.20;99.90
19174;DHT22;9719;49.322;8.536;2024-03-23T16:18:11;5.30;99.90
19174;DHT22;9719;49.322;8.536;2024-03-23T16:23:13;5.40;99.90
19174;DHT22;9719;49.322;8.536;2024-03-23T16:28:14;6.00;99.90
19174;DHT22;9719;49.322;8.536;2024-03-23T16:33:17;6.40;99.90
19174;DHT22;9719;49.322;8.536;2024-03-23T16:38:19;6.70;99.90
19174;DHT22;9719;49.322;8.536;2024-03-23T16:43:21;6.00;99.90
19174;DHT22;9719;49.322;8.536;2024-03-23T16:48:25;5.70;99.90
19174;DHT22;9719;49.322;8.536;2024-03-23T16:53:27;5.60;99.90
19174;DHT22;9719;49.322;8.536;2024-03-23T16:58:31;5.70;99.90
19174;DHT22;9719;49.322;8.536;2024-03-23T17:03:34;5.80;99.90
19174;DHT22;9719;49.322;8.536;2024-03-23T17:08:36;5.50;99.90
19174;DHT22;9719;49.322;8.536;2024-03-23T17:13:38;5.30;99.90
19174;DHT22;9719;49.322;8.536;2024-03-23T17:18:41;5.50;99.90
19174;DHT22;9719;49.322;8.536;2024-03-23T17:23:42;5.60;99.90
19174;DHT22;9719;49.322;8.536;2024-03-23T17:28:44;5.40;99.90
19174;DHT22;9719;49.322;8.536;2024-03-23T17:33:49;5.40;99.90
19174;DHT22;9719;49.322;8.536;2024-03-23T17:38:53;5.30;99.90
19174;DHT22;9719;49.322;8.536;2024-03-23T17:43:54;5.20;99.90
19174;DHT22;9719;49.322;8.536;2024-03-23T17:48:57;5.20;99.90
19174;DHT22;9719;49.322;8.536;2024-03-23T17:53:59;5.20;99.90
19174;DHT22;9719;49.322;8.536;2024-03-23T17:59:01;5.30;99.90
19174;DHT22;9719;49.322;8.536;2024-03-23T18:04:04;5.20;99.90
19174;DHT22;9719;49.322;8.536;2024-03-23T18:09:06;5.30;99.90
19174;DHT22;9719;49.322;8.536;2024-03-23T18:14:10;5.30;99.90
19174;DHT22;9719;49.322;8.536;2024-03-23T18:19:13;5.30;99.90
19174;DHT22;9719;49.322;8.536;2024-03-23T18:24:14;5.40;99.90
19174;DHT22;9719;49.322;8.536;2024-03-23T18:29:16;5.50;99.90
19174;DHT22;9719;49.322;8.536;2024-03-23T18:34:20;5.40;99.90
19174;DHT22;9719;49.322;8.536;2024-03-23T18:39:21;5.50;99.90
19174;DHT22;9719;49.322;8.536;2024-03-23T18:44:23;5.40;99.90
19174;DHT22;9719;49.322;8.536;2024-03-23T18:49:26;5.50;99.90
19174;DHT22;9719;49.322;8.536;2024-03-23T18:54:28;5.40;99.90
19174;DHT22;9719;49.322;8.536;2024-03-23T18:59:29;5.30;99.90
19174;DHT22;9719;49.322;8.536;2024-03-23T19:04:32;5.30;99.90
19174;DHT22;9719;49.322;8.536;2024-03-23T19:09:34;5.20;99.90
19174;DHT22;9719;49.322;8.536;2024-03-23T19:14:36;5.20;99.90
19174;DHT22;9719;49.322;8.536;2024-03-23T19:19:41;5.20;99.90
19174;DHT22;9719;49.322;8.536;2024-03-23T19:24:43;5.30;99.90
19174;DHT22;9719;49.322;8.536;2024-03-23T19:29:44;5.20;99.90
19174;DHT22;9719;49.322;8.536;2024-03-23T19:34:47;5.20;99.90
19174;DHT22;9719;49.322;8.536;2024-03-23T19:39:49;5.20;99.90
19174;DHT22;9719;49.322;8.536;2024-03-23T19:44:50;5.10;99.90
19174;DHT22;9719;49.322;8.536;2024-03-23T19:49:53;5.20;99.90
19174;DHT22;9719;49.322;8.536;2024-03-23T19:54:55;5.20;99.90
19174;DHT22;9719;49.322;8.536;2024-03-23T19:59:57;5.20;99.90
19174;DHT22;9719;49.322;8.536;2024-03-23T20:05:00;5.30;99.90
19174;DHT22;9719;49.322;8.536;2024-03-23T20:10:03;5.30;99.90
19174;DHT22;9719;49.322;8.536;2024-03-23T20:15:06;5.20;99.90
19174;DHT22;9719;49.322;8.536;2024-03-23T20:20:10;5.10;99.90
19174;DHT22;9719;49.322;8.536;2024-03-23T20:25:12;5.00;99.90
19174;DHT22;9719;49.322;8.536;2024-03-23T20:30:14;4.90;99.90
19174;DHT22;9719;49.322;8.536;2024-03-23T20:35:17;4.90;99.90
19174;DHT22;9719;49.322;8.536;2024-03-23T20:40:18;4.80;99.90
19174;DHT22;9719;49.322;8.536;2024-03-23T20:45:20;4.80;99.90
19174;DHT22;9719;49.322;8.536;2024-03-23T20:50:23;4.80;99.90
19174;DHT22;9719;49.322;8.536;2024-03-23T20:55:25;4.80;99.90
19174;DHT22;9719;49.322;8.536;2024-03-23T21:00:26;4.80;99.90
19174;DHT22;9719;49.322;8.536;2024-03-23T21:05:29;4.90;99.90
19174;DHT22;9719;49.322;8.536;2024-03-23T21:10:31;5.10;99.90
19174;DHT22;9719;49.322;8.536;2024-03-23T21:15:33;5.20;99.90
19174;DHT22;9719;49.322;8.536;2024-03-23T21:20:37;5.10;99.90
19174;DHT22;9719;49.322;8.536;2024-03-23T21:25:39;5.10;99.90
19174;DHT22;9719;49.322;8.536;2024-03-23T21:30:41;5.10;99.90
19174;DHT22;9719;49.322;8.536;2024-03-23T21:35:44;5.20;99.90
19174;DHT22;9719;49.322;8.536;2024-03-23T21:40:53;5.20;99.90
19174;DHT22;9719;49.322;8.536;2024-03-23T21:45:57;5.00;99.90
19174;DHT22;9719;49.322;8.536;2024-03-23T21:51:01;5.10;99.90
19174;DHT22;9719;49.322;8.536;2024-03-23T21:56:04;5.00;99.90
19174;DHT22;9719;49.322;8.536;2024-03-23T22:01:06;5.00;99.90
19174;DHT22;9719;49.322;8.536;2024-03-23T22:06:09;5.00;99.90
19174;DHT22;9719;49.322;8.536;2024-03-23T22:11:11;5.00;99.90
19174;DHT22;9719;49.322;8.536;2024-03-23T22:16:12;5.00;99.90
19174;DHT22;9719;49.322;8.536;2024-03-23T22:21:16;5.00;99.90
19174;DHT22;9719;49.322;8.536;2024-03-23T22:26:18;5.10;99.90
19174;DHT22;9719;49.322;8.536;2024-03-23T22:31:19;5.20;99.90
19174;DHT22;9719;49.322;8.536;2024-03-23T22:36:22;5.20;99.90
19174;DHT22;9719;49.322;8.536;2024-03-23T22:41:24;5.40;99.90
19174;DHT22;9719;49.322;8.536;2024-03-23T22:46:26;5.30;99.90
19174;DHT22;9719;49.322;8.536;2024-03-23T22:51:29;5.40;99.90
19174;DHT22;9719;49.322;8.536;2024-03-23T22:56:30;5.60;99.90
19174;DHT22;9719;49.322;8.536;2024-03-23T23:01:32;5.50;99.90
19174;DHT22;9719;49.322;8.536;2024-03-23T23:06:35;5.50;99.90
19174;DHT22;9719;49.322;8.536;2024-03-23T23:11:37;5.60;99.90
19174;DHT22;9719;49.322;8.536;2024-03-23T23:16:39;5.60;99.90
19174;DHT22;9719;49.322;8.536;2024-03-23T23:21:42;5.70;99.90
19174;DHT22;9719;49.322;8.536;2024-03-23T23:26:44;5.50;99.90
19174;DHT22;9719;49.322;8.536;2024-03-23T23:31:46;5.50;99.90
19174;DHT22;9719;49.322;8.536;2024-03-23T23:36:50;5.60;99.90
19174;DHT22;9719;49.322;8.536;2024-03-23T23:41:52;5.60;99.90
19174;DHT22;9719;49.322;8.536;2024-03-23T23:46:54;5.60;99.90
19174;DHT22;9719;49.322;8.536;2024-03-23T23:51:57;5.60;99.90
19174;DHT22;9719;49.322;8.536;2024-03-23T23:56:58;5.40;99.90
